createdAt,value
2018-09-19T00:01:47.382Z,15.76
2018-09-19T00:04:15.586Z,15.75
2018-09-19T00:06:43.754Z,15.78
2018-09-19T00:09:12.482Z,15.78
2018-09-19T00:11:40.943Z,15.78
2018-09-19T00:14:13.552Z,15.78
2018-09-19T00:16:41.680Z,15.80
2018-09-19T00:19:09.790Z,15.77
2018-09-19T00:21:37.940Z,15.82
2018-09-19T00:24:06.097Z,15.80
2018-09-19T00:26:34.242Z,15.84
2018-09-19T00:29:02.386Z,15.74
2018-09-19T00:31:30.466Z,15.75
2018-09-19T00:33:58.624Z,15.77
2018-09-19T00:36:26.773Z,15.70
2018-09-19T00:38:54.895Z,15.65
2018-09-19T00:41:23.031Z,15.64
2018-09-19T00:43:51.157Z,15.59
2018-09-19T00:46:19.264Z,15.69
2018-09-19T00:48:47.445Z,15.69
2018-09-19T00:51:15.628Z,15.63
2018-09-19T00:53:43.904Z,15.64
2018-09-19T00:56:12.020Z,15.60
2018-09-19T00:58:40.256Z,15.61
2018-09-19T01:01:08.419Z,15.50
2018-09-19T01:03:36.570Z,15.48
2018-09-19T01:06:04.732Z,15.48
2018-09-19T01:08:32.859Z,15.46
2018-09-19T01:11:00.980Z,15.42
2018-09-19T01:13:29.137Z,15.52
2018-09-19T01:15:57.269Z,15.41
2018-09-19T01:18:25.379Z,15.35
2018-09-19T01:20:53.548Z,15.30
2018-09-19T01:23:21.693Z,15.23
2018-09-19T01:25:49.828Z,15.24
2018-09-19T01:28:18.019Z,15.27
2018-09-19T01:30:46.136Z,15.26
2018-09-19T01:33:14.266Z,15.27
2018-09-19T01:35:42.436Z,15.22
2018-09-19T01:38:10.546Z,15.24
2018-09-19T01:40:38.676Z,15.27
2018-09-19T01:43:06.797Z,15.26
2018-09-19T01:45:34.917Z,15.27
2018-09-19T01:48:03.047Z,15.24
2018-09-19T01:50:31.213Z,15.25
2018-09-19T01:52:59.349Z,15.22
2018-09-19T01:55:27.470Z,15.16
2018-09-19T01:57:55.598Z,15.20
2018-09-19T02:00:23.728Z,15.16
2018-09-19T02:02:51.845Z,15.11
2018-09-19T02:05:19.978Z,15.07
2018-09-19T02:07:48.084Z,15.12
2018-09-19T02:10:16.224Z,15.10
2018-09-19T02:12:44.342Z,15.07
2018-09-19T02:15:12.512Z,14.97
2018-09-19T02:17:40.604Z,14.99
2018-09-19T02:20:08.717Z,14.92
2018-09-19T02:22:36.817Z,14.89
2018-09-19T02:25:04.946Z,14.84
2018-09-19T02:27:33.057Z,14.91
2018-09-19T02:30:01.192Z,14.94
2018-09-19T02:32:29.312Z,14.84
2018-09-19T02:34:57.469Z,14.83
2018-09-19T02:37:25.580Z,14.88
2018-09-19T02:39:53.740Z,14.89
2018-09-19T02:42:21.906Z,14.81
2018-09-19T02:44:50.044Z,14.88
2018-09-19T02:47:18.197Z,14.83
2018-09-19T02:49:46.308Z,14.80
2018-09-19T02:52:14.448Z,14.84
2018-09-19T02:54:42.597Z,14.88
2018-09-19T02:57:10.674Z,14.91
2018-09-19T02:59:38.813Z,14.86
2018-09-19T03:02:06.954Z,14.93
2018-09-19T03:04:35.074Z,14.97
2018-09-19T03:07:03.213Z,14.99
2018-09-19T03:09:31.305Z,14.84
2018-09-19T03:11:59.416Z,14.82
2018-09-19T03:14:27.577Z,14.85
2018-09-19T03:16:55.686Z,14.73
2018-09-19T03:19:23.804Z,14.77
2018-09-19T03:21:52.032Z,14.78
2018-09-19T03:24:20.197Z,14.83
2018-09-19T03:26:48.351Z,14.80
2018-09-19T03:29:16.480Z,14.81
2018-09-19T03:31:44.592Z,14.90
2018-09-19T03:34:12.698Z,14.85
2018-09-19T03:36:40.801Z,14.82
2018-09-19T03:39:10.051Z,14.75
2018-09-19T03:41:38.633Z,14.78
2018-09-19T03:44:06.931Z,14.75
2018-09-19T03:46:35.505Z,14.75
2018-09-19T03:49:03.650Z,14.70
2018-09-19T03:51:31.877Z,14.77
2018-09-19T03:54:00.039Z,14.78
2018-09-19T03:56:28.192Z,14.70
2018-09-19T03:58:56.329Z,14.64
2018-09-19T04:01:24.577Z,14.62
2018-09-19T04:03:52.733Z,14.60
2018-09-19T04:06:20.882Z,14.56
2018-09-19T04:08:49.233Z,14.58
2018-09-19T04:11:17.416Z,14.60
2018-09-19T04:13:45.541Z,14.64
2018-09-19T04:16:13.694Z,14.59
2018-09-19T04:18:41.850Z,14.60
2018-09-19T04:21:10.027Z,14.54
2018-09-19T04:23:39.465Z,14.60
2018-09-19T04:26:07.617Z,14.57
2018-09-19T04:28:35.785Z,14.51
2018-09-19T04:31:03.924Z,14.47
2018-09-19T04:33:32.038Z,14.45
2018-09-19T04:36:00.164Z,14.47
2018-09-19T04:38:28.305Z,14.48
2018-09-19T04:40:56.464Z,14.56
2018-09-19T04:43:24.592Z,14.61
2018-09-19T04:45:52.718Z,14.55
2018-09-19T04:48:20.901Z,14.59
2018-09-19T04:50:51.157Z,14.57
2018-09-19T04:53:19.452Z,14.53
2018-09-19T04:55:47.582Z,14.44
2018-09-19T04:58:15.773Z,14.49
2018-09-19T05:00:43.982Z,14.45
2018-09-19T05:03:12.150Z,14.53
2018-09-19T05:05:40.355Z,14.52
2018-09-19T05:08:08.474Z,14.60
2018-09-19T05:10:36.694Z,14.59
2018-09-19T05:13:04.838Z,14.62
2018-09-19T05:15:33.072Z,14.62
2018-09-19T05:18:01.215Z,14.69
2018-09-19T05:20:29.345Z,14.76
2018-09-19T05:22:57.505Z,14.84
2018-09-19T05:25:25.838Z,14.82
2018-09-19T05:27:53.992Z,14.90
2018-09-19T05:30:22.143Z,14.94
2018-09-19T05:32:50.355Z,15.03
2018-09-19T05:35:18.497Z,15.06
2018-09-19T05:37:46.688Z,15.12
2018-09-19T05:40:14.827Z,15.19
2018-09-19T05:42:43.002Z,15.23
2018-09-19T05:45:11.799Z,15.33
2018-09-19T05:47:39.922Z,15.47
2018-09-19T05:50:08.122Z,15.59
2018-09-19T05:52:36.317Z,15.69
2018-09-19T05:55:04.490Z,15.71
2018-09-19T05:57:32.660Z,15.79
2018-09-19T06:00:00.815Z,15.84
2018-09-19T06:02:28.988Z,15.72
2018-09-19T06:04:57.125Z,15.86
2018-09-19T06:07:25.206Z,16.03
2018-09-19T06:09:53.319Z,16.07
2018-09-19T06:12:21.481Z,16.13
2018-09-19T06:14:49.647Z,16.10
2018-09-19T06:17:17.756Z,16.26
2018-09-19T06:19:45.924Z,16.22
2018-09-19T06:22:14.070Z,16.29
2018-09-19T06:24:42.231Z,16.42
2018-09-19T06:27:10.372Z,16.41
2018-09-19T06:29:38.480Z,16.44
2018-09-19T06:32:06.741Z,16.57
2018-09-19T06:34:34.861Z,16.73
2018-09-19T06:37:03.033Z,16.72
2018-09-19T06:39:31.102Z,16.85
2018-09-19T06:41:59.272Z,16.84
2018-09-19T06:44:27.428Z,16.93
2018-09-19T06:46:55.627Z,16.90
2018-09-19T06:49:23.686Z,17.01
2018-09-19T06:51:51.885Z,17.20
2018-09-19T06:54:19.997Z,17.31
2018-09-19T06:56:48.177Z,17.37
2018-09-19T06:59:16.279Z,17.41
2018-09-19T07:01:44.394Z,17.59
2018-09-19T07:04:12.837Z,17.59
2018-09-19T07:06:40.967Z,17.69
2018-09-19T07:09:10.005Z,17.82
2018-09-19T07:11:38.153Z,17.92
2018-09-19T07:14:06.675Z,17.77
2018-09-19T07:16:34.799Z,17.72
2018-09-19T07:19:02.983Z,17.50
2018-09-19T07:21:31.092Z,17.57
2018-09-19T07:23:59.231Z,17.77
2018-09-19T07:26:27.347Z,17.80
2018-09-19T07:28:55.507Z,17.79
2018-09-19T07:31:23.627Z,17.77
2018-09-19T07:33:51.743Z,17.62
2018-09-19T07:36:19.843Z,17.74
2018-09-19T07:38:47.957Z,17.90
2018-09-19T07:41:16.088Z,18.09
2018-09-19T07:43:44.192Z,18.12
2018-09-19T07:46:12.310Z,18.12
2018-09-19T07:48:40.439Z,18.16
2018-09-19T07:51:08.546Z,18.30
2018-09-19T07:53:36.654Z,18.32
2018-09-19T07:56:05.214Z,18.35
2018-09-19T07:58:33.484Z,18.49
2018-09-19T08:01:01.667Z,18.73
2018-09-19T08:03:29.717Z,18.85
2018-09-19T08:05:57.876Z,18.91
2018-09-19T08:08:25.985Z,18.91
2018-09-19T08:10:54.264Z,18.78
2018-09-19T08:13:22.401Z,18.98
2018-09-19T08:15:50.549Z,19.12
2018-09-19T08:18:18.633Z,19.44
2018-09-19T08:20:46.753Z,19.64
2018-09-19T08:23:14.883Z,19.56
2018-09-19T08:25:43.048Z,19.54
2018-09-19T08:28:11.193Z,19.65
2018-09-19T08:30:39.301Z,19.70
2018-09-19T08:33:07.421Z,19.68
2018-09-19T08:35:35.523Z,19.72
2018-09-19T08:38:03.639Z,19.76
2018-09-19T08:40:31.893Z,20.01
2018-09-19T08:43:00.048Z,20.08
2018-09-19T08:45:28.218Z,20.24
2018-09-19T08:47:56.366Z,20.34
2018-09-19T08:50:24.526Z,20.51
2018-09-19T08:52:52.653Z,20.84
2018-09-19T08:55:20.777Z,21.02
2018-09-19T08:57:48.937Z,21.01
2018-09-19T09:00:17.089Z,20.57
2018-09-19T09:02:45.201Z,20.31
2018-09-19T09:05:13.392Z,20.41
2018-09-19T09:07:41.472Z,20.53
2018-09-19T09:10:09.619Z,20.68
2018-09-19T09:12:37.979Z,21.06
2018-09-19T09:15:06.133Z,21.26
2018-09-19T09:17:34.281Z,21.55
2018-09-19T09:20:02.473Z,21.33
2018-09-19T09:22:30.576Z,21.59
2018-09-19T09:24:58.843Z,21.61
2018-09-19T09:27:27.067Z,21.37
2018-09-19T09:29:55.069Z,21.60
2018-09-19T09:32:23.152Z,21.83
2018-09-19T09:34:51.265Z,21.51
2018-09-19T09:37:19.379Z,21.82
2018-09-19T09:39:47.497Z,21.84
2018-09-19T09:42:15.601Z,22.15
2018-09-19T09:44:43.682Z,22.11
2018-09-19T09:47:11.805Z,22.14
2018-09-19T09:49:39.937Z,22.08
2018-09-19T09:52:08.074Z,22.18
2018-09-19T09:54:36.374Z,22.24
2018-09-19T09:57:04.768Z,22.32
2018-09-19T09:59:32.891Z,22.72
2018-09-19T10:02:01.093Z,22.79
2018-09-19T10:04:29.238Z,22.68
2018-09-19T10:06:57.342Z,22.59
2018-09-19T10:09:25.471Z,22.84
2018-09-19T10:11:53.553Z,22.83
2018-09-19T10:14:21.654Z,22.75
2018-09-19T10:16:49.753Z,22.94
2018-09-19T10:19:17.904Z,22.88
2018-09-19T10:21:45.996Z,23.07
2018-09-19T10:24:14.148Z,23.33
2018-09-19T10:26:42.292Z,23.38
2018-09-19T10:29:10.387Z,23.47
2018-09-19T10:31:38.530Z,23.21
2018-09-19T10:34:06.698Z,23.11
2018-09-19T10:36:34.819Z,23.14
2018-09-19T10:39:03.013Z,23.50
2018-09-19T10:41:31.133Z,23.61
2018-09-19T10:43:59.281Z,23.49
2018-09-19T10:46:27.359Z,23.47
2018-09-19T10:48:55.486Z,23.77
2018-09-19T10:51:23.613Z,23.77
2018-09-19T10:53:51.708Z,23.75
2018-09-19T10:56:19.833Z,23.69
2018-09-19T10:58:47.956Z,23.91
2018-09-19T11:01:16.080Z,24.14
2018-09-19T11:03:44.203Z,24.02
2018-09-19T11:06:12.418Z,23.99
2018-09-19T11:08:40.541Z,24.18
2018-09-19T11:11:09.027Z,23.89
2018-09-19T11:13:37.141Z,23.92
2018-09-19T11:16:05.397Z,23.71
2018-09-19T11:18:33.501Z,23.85
2018-09-19T11:21:01.633Z,23.78
2018-09-19T11:23:29.753Z,23.86
2018-09-19T11:25:57.893Z,24.21
2018-09-19T11:28:25.995Z,24.28
2018-09-19T11:30:54.925Z,24.46
2018-09-19T11:33:22.997Z,24.23
2018-09-19T11:35:51.080Z,24.43
2018-09-19T11:38:19.195Z,24.44
2018-09-19T11:40:47.310Z,24.26
2018-09-19T11:43:15.452Z,24.13
2018-09-19T11:45:43.513Z,23.90
2018-09-19T11:48:11.591Z,24.06
2018-09-19T11:50:39.681Z,24.44
2018-09-19T11:53:13.167Z,24.52
2018-09-19T11:55:41.292Z,24.62
2018-09-19T11:58:09.463Z,24.81
2018-09-19T12:00:37.522Z,24.78
2018-09-19T12:03:05.613Z,24.60
2018-09-19T12:05:33.709Z,24.53
2018-09-19T12:08:01.890Z,24.62
2018-09-19T12:10:29.985Z,24.69
2018-09-19T12:12:58.092Z,24.56
2018-09-19T12:15:26.291Z,24.83
2018-09-19T12:17:54.376Z,24.86
2018-09-19T12:20:22.497Z,25.18
2018-09-19T12:22:50.599Z,25.01
2018-09-19T12:25:18.669Z,24.98
2018-09-19T12:27:46.758Z,25.30
2018-09-19T12:30:15.014Z,25.22
2018-09-19T12:32:43.127Z,25.44
2018-09-19T12:35:11.283Z,25.62
2018-09-19T12:37:39.418Z,25.69
2018-09-19T12:40:07.496Z,25.70
2018-09-19T12:42:35.594Z,25.52
2018-09-19T12:45:03.677Z,25.52
2018-09-19T12:47:31.764Z,25.38
2018-09-19T12:49:59.846Z,25.45
2018-09-19T12:52:27.962Z,25.50
2018-09-19T12:54:56.043Z,25.60
2018-09-19T12:57:24.144Z,25.75
2018-09-19T12:59:52.266Z,25.71
2018-09-19T13:02:20.368Z,25.60
2018-09-19T13:04:48.464Z,25.65
2018-09-19T13:07:16.544Z,25.80
2018-09-19T13:09:44.632Z,25.69
2018-09-19T13:12:12.728Z,25.76
2018-09-19T13:14:40.822Z,25.66
2018-09-19T13:17:08.925Z,25.72
2018-09-19T13:19:37.020Z,25.65
2018-09-19T13:22:05.141Z,25.91
2018-09-19T13:24:33.219Z,26.06
2018-09-19T13:27:01.300Z,25.99
2018-09-19T13:29:29.401Z,25.95
2018-09-19T13:31:57.501Z,26.14
2018-09-19T13:34:25.573Z,26.01
2018-09-19T13:36:53.659Z,26.22
2018-09-19T13:39:21.768Z,26.22
2018-09-19T13:41:49.869Z,26.23
2018-09-19T13:44:18.045Z,26.14
2018-09-19T13:46:46.147Z,26.24
2018-09-19T13:49:26.819Z,26.26
2018-09-19T13:51:55.071Z,26.15
2018-09-19T13:54:23.161Z,26.12
2018-09-19T13:56:51.264Z,26.21
2018-09-19T13:59:19.371Z,26.31
2018-09-19T14:01:47.468Z,26.35
2018-09-19T14:04:15.645Z,26.56
2018-09-19T14:06:43.694Z,26.72
2018-09-19T14:09:11.776Z,26.49
2018-09-19T14:11:39.933Z,26.35
2018-09-19T14:14:07.988Z,26.47
2018-09-19T14:16:36.094Z,26.25
2018-09-19T14:19:04.210Z,25.95
2018-09-19T14:21:32.302Z,25.91
2018-09-19T14:24:00.376Z,26.14
2018-09-19T14:26:28.488Z,26.19
2018-09-19T14:28:56.688Z,26.10
2018-09-19T14:31:24.789Z,26.26
2018-09-19T14:33:52.911Z,26.23
2018-09-19T14:36:21.017Z,26.17
2018-09-19T14:38:49.114Z,26.29
2018-09-19T14:41:17.229Z,26.36
2018-09-19T14:43:45.307Z,26.28
2018-09-19T14:46:13.415Z,26.21
2018-09-19T14:48:41.604Z,26.36
2018-09-19T14:51:09.627Z,26.26
2018-09-19T14:53:37.704Z,26.26
2018-09-19T14:56:05.807Z,26.33
2018-09-19T14:58:33.971Z,26.38
2018-09-19T15:01:02.077Z,26.14
2018-09-19T15:03:30.168Z,26.13
2018-09-19T15:05:58.308Z,26.10
2018-09-19T15:08:26.438Z,26.14
2018-09-19T15:10:54.561Z,26.12
2018-09-19T15:13:22.688Z,26.05
2018-09-19T15:15:50.788Z,26.18
2018-09-19T15:18:18.899Z,25.99
2018-09-19T15:20:47.017Z,25.74
2018-09-19T15:23:15.240Z,25.78
2018-09-19T15:25:43.371Z,25.88
2018-09-19T15:28:11.481Z,25.69
2018-09-19T15:30:39.594Z,25.77
2018-09-19T15:33:07.709Z,25.65
2018-09-19T15:35:35.838Z,25.76
2018-09-19T15:38:03.971Z,25.77
2018-09-19T15:40:32.104Z,25.77
2018-09-19T15:43:00.224Z,25.83
2018-09-19T15:45:28.361Z,25.93
2018-09-19T15:47:56.527Z,25.90
2018-09-19T15:50:24.627Z,25.90
2018-09-19T15:52:52.759Z,25.83
2018-09-19T15:55:20.964Z,25.74
2018-09-19T15:57:49.109Z,25.76
2018-09-19T16:00:17.869Z,25.68
2018-09-19T16:02:46.032Z,25.59
2018-09-19T16:05:14.164Z,25.48
2018-09-19T16:07:42.294Z,25.54
2018-09-19T16:10:10.398Z,25.41
2018-09-19T16:12:38.524Z,25.28
2018-09-19T16:15:06.653Z,25.34
2018-09-19T16:17:34.778Z,25.26
2018-09-19T16:20:02.906Z,25.12
2018-09-19T16:22:31.005Z,25.04
2018-09-19T16:24:59.117Z,25.13
2018-09-19T16:27:27.232Z,24.95
2018-09-19T16:29:55.359Z,24.97
2018-09-19T16:32:23.478Z,25.01
2018-09-19T16:34:51.616Z,24.93
2018-09-19T16:37:19.737Z,24.95
2018-09-19T16:39:47.845Z,24.92
2018-09-19T16:42:16.024Z,24.85
2018-09-19T16:44:44.119Z,24.76
2018-09-19T16:47:12.257Z,24.79
2018-09-19T16:49:40.397Z,24.74
2018-09-19T16:52:08.527Z,24.60
2018-09-19T16:54:36.659Z,24.31
2018-09-19T16:57:04.820Z,24.32
2018-09-19T16:59:32.969Z,24.35
2018-09-19T17:02:01.121Z,24.24
2018-09-19T17:04:29.252Z,24.19
2018-09-19T17:06:57.432Z,24.11
2018-09-19T17:09:25.584Z,24.19
2018-09-19T17:11:53.706Z,24.05
2018-09-19T17:14:21.879Z,23.75
2018-09-19T17:16:50.017Z,23.67
2018-09-19T17:19:18.141Z,23.61
2018-09-19T17:21:46.243Z,23.67
2018-09-19T17:24:14.372Z,23.47
2018-09-19T17:26:42.470Z,23.47
2018-09-19T17:29:10.581Z,23.38
2018-09-19T17:31:38.703Z,23.19
2018-09-19T17:34:06.861Z,23.02
2018-09-19T17:36:35.016Z,22.94
2018-09-19T17:39:03.936Z,22.92
2018-09-19T17:41:32.048Z,22.86
2018-09-19T17:44:00.184Z,22.84
2018-09-19T17:46:28.312Z,22.89
2018-09-19T17:48:56.442Z,22.99
2018-09-19T17:51:24.581Z,22.95
2018-09-19T17:53:52.699Z,22.99
2018-09-19T17:56:20.805Z,22.91
2018-09-19T17:58:48.988Z,22.88
2018-09-19T18:01:17.129Z,22.90
2018-09-19T18:03:45.264Z,22.90
2018-09-19T18:06:13.846Z,22.78
2018-09-19T18:08:42.017Z,22.73
2018-09-19T18:11:10.175Z,22.59
2018-09-19T18:13:39.448Z,22.62
2018-09-19T18:16:07.555Z,22.55
2018-09-19T18:18:35.690Z,22.48
2018-09-19T18:21:03.816Z,22.48
2018-09-19T18:23:31.958Z,22.55
2018-09-19T18:26:00.062Z,22.44
2018-09-19T18:28:28.173Z,22.43
2018-09-19T18:30:56.274Z,22.13
2018-09-19T18:33:24.392Z,22.05
2018-09-19T18:35:52.509Z,22.00
2018-09-19T18:38:20.644Z,21.93
2018-09-19T18:40:48.739Z,21.95
2018-09-19T18:43:16.846Z,22.03
2018-09-19T18:45:45.030Z,21.93
2018-09-19T18:48:13.174Z,21.90
2018-09-19T18:50:41.303Z,21.82
2018-09-19T18:53:09.587Z,21.89
2018-09-19T18:55:37.720Z,21.86
2018-09-19T18:58:05.845Z,21.71
2018-09-19T19:00:33.968Z,21.61
2018-09-19T19:03:02.072Z,21.48
2018-09-19T19:05:30.302Z,21.60
2018-09-19T19:07:58.499Z,21.65
2018-09-19T19:10:26.648Z,21.51
2018-09-19T19:12:54.762Z,21.42
2018-09-19T19:15:22.895Z,21.33
2018-09-19T19:17:51.061Z,21.28
2018-09-19T19:20:19.228Z,21.27
2018-09-19T19:22:47.383Z,21.28
2018-09-19T19:25:15.544Z,21.32
2018-09-19T19:27:43.720Z,21.36
2018-09-19T19:30:11.989Z,21.38
2018-09-19T19:32:40.054Z,21.36
2018-09-19T19:35:08.185Z,21.40
2018-09-19T19:37:36.381Z,21.34
2018-09-19T19:40:04.538Z,21.29
2018-09-19T19:42:32.690Z,21.22
2018-09-19T19:45:00.826Z,21.14
2018-09-19T19:47:29.021Z,21.12
2018-09-19T19:49:57.151Z,21.06
2018-09-19T19:52:25.287Z,21.00
2018-09-19T19:54:53.441Z,20.95
2018-09-19T19:57:21.568Z,20.98
2018-09-19T19:59:49.696Z,20.79
2018-09-19T20:02:17.857Z,20.73
2018-09-19T20:04:46.013Z,20.65
2018-09-19T20:07:14.178Z,20.55
2018-09-19T20:09:42.398Z,20.48
2018-09-19T20:12:10.520Z,20.51
2018-09-19T20:14:38.743Z,20.55
2018-09-19T20:17:06.847Z,20.46
2018-09-19T20:19:35.029Z,20.47
2018-09-19T20:22:03.157Z,20.43
2018-09-19T20:24:31.296Z,20.26
2018-09-19T20:26:59.461Z,20.28
2018-09-19T20:29:27.613Z,20.27
2018-09-19T20:31:55.766Z,20.33
2018-09-19T20:34:23.919Z,20.25
2018-09-19T20:36:52.097Z,20.18
2018-09-19T20:39:20.196Z,20.19
2018-09-19T20:41:48.375Z,20.18
2018-09-19T20:44:16.577Z,20.07
2018-09-19T20:46:44.800Z,20.07
2018-09-19T20:49:12.918Z,20.05
2018-09-19T20:51:41.057Z,20.10
2018-09-19T20:54:09.191Z,20.10
2018-09-19T20:56:37.353Z,20.03
2018-09-19T20:59:05.968Z,20.03
2018-09-19T21:01:34.111Z,20.05
2018-09-19T21:04:02.406Z,20.04
2018-09-19T21:06:30.539Z,19.96
2018-09-19T21:08:58.689Z,19.91
2018-09-19T21:11:26.850Z,19.87
2018-09-19T21:13:55.450Z,19.73
2018-09-19T21:16:23.692Z,19.73
2018-09-19T21:18:51.906Z,19.71
2018-09-19T21:21:20.094Z,19.64
2018-09-19T21:23:48.263Z,19.61
2018-09-19T21:26:16.387Z,19.52
2018-09-19T21:28:44.541Z,19.49
2018-09-19T21:31:12.682Z,19.26
2018-09-19T21:33:41.909Z,19.06
2018-09-19T21:36:10.047Z,19.11
2018-09-19T21:38:38.162Z,19.04
2018-09-19T21:41:06.624Z,18.89
2018-09-19T21:43:34.801Z,18.94
2018-09-19T21:46:02.944Z,19.04
2018-09-19T21:48:31.111Z,18.98
2018-09-19T21:50:59.356Z,19.02
2018-09-19T21:53:27.489Z,18.95
2018-09-19T21:55:55.636Z,19.11
2018-09-19T21:58:23.998Z,19.18
2018-09-19T22:00:57.426Z,19.29
2018-09-19T22:03:25.549Z,19.28
2018-09-19T22:05:53.656Z,19.33
2018-09-19T22:08:21.809Z,19.35
2018-09-19T22:10:49.923Z,19.30
2018-09-19T22:13:18.114Z,19.30
2018-09-19T22:15:46.289Z,19.36
2018-09-19T22:18:14.438Z,19.33
2018-09-19T22:20:42.588Z,19.32
2018-09-19T22:23:10.858Z,19.24
2018-09-19T22:25:39.016Z,19.27
2018-09-19T22:28:07.126Z,19.30
2018-09-19T22:30:35.257Z,19.33
2018-09-19T22:33:03.557Z,19.32
2018-09-19T22:35:31.689Z,19.36
2018-09-19T22:37:59.839Z,19.35
2018-09-19T22:40:28.017Z,19.33
2018-09-19T22:42:56.189Z,19.29
2018-09-19T22:45:24.325Z,19.28
2018-09-19T22:47:52.510Z,19.29
2018-09-19T22:50:20.672Z,19.19
2018-09-19T22:52:48.816Z,19.12
2018-09-19T22:55:17.012Z,19.03
2018-09-19T22:57:45.158Z,19.05
2018-09-19T23:00:13.284Z,18.90
2018-09-19T23:02:41.466Z,18.93
2018-09-19T23:05:09.596Z,19.02
2018-09-19T23:07:37.725Z,18.93
2018-09-19T23:10:05.975Z,18.94
2018-09-19T23:12:34.122Z,18.91
2018-09-19T23:15:02.276Z,18.86
2018-09-19T23:17:30.460Z,18.86
2018-09-19T23:19:58.629Z,18.72
2018-09-19T23:22:26.768Z,18.62
2018-09-19T23:24:55.036Z,18.64
2018-09-19T23:27:23.268Z,18.69
2018-09-19T23:29:51.478Z,18.73
2018-09-19T23:32:19.649Z,18.73
2018-09-19T23:34:47.818Z,18.84
2018-09-19T23:37:15.985Z,18.90
2018-09-19T23:39:44.155Z,19.01
2018-09-19T23:42:12.339Z,19.06
2018-09-19T23:44:40.498Z,19.13
2018-09-19T23:47:08.643Z,19.14
2018-09-19T23:49:36.794Z,19.07
2018-09-19T23:52:05.037Z,19.14
2018-09-19T23:54:33.183Z,19.24
2018-09-19T23:57:01.322Z,19.25
2018-09-19T23:59:29.460Z,19.19
